Time;durP1;ratioP1;P1;durP2;ratioP2;P2;SDS_P1;SDS_P2;PMS_P1;PMS_P2;Temp;Humidity;BMP_temperature;BMP_pressure;BME280_temperature;BME280_humidity;BME280_pressure;Samples;Min_cycle;Max_cycle;Signal;HPM_P1;HPM_P2
2021/10/16 00:00:59;;;;;;;30.60;18.63;;;;;;;7.13;85.86;100675.06;4991383;28;20030;-64
2021/10/16 00:03:25;;;;;;;31.10;19.17;;;;;;;7.04;86.09;100674.72;5009038;28;20464;-64
2021/10/16 00:05:51;;;;;;;33.08;18.80;;;;;;;6.98;85.51;100675.16;5010906;28;20384;-62
2021/10/16 00:08:16;;;;;;;33.80;18.83;;;;;;;6.90;86.26;100671.28;5010805;28;20042;-63
2021/10/16 00:10:42;;;;;;;36.63;20.48;;;;;;;6.81;86.30;100672.75;5011353;28;20583;-62
2021/10/16 00:13:07;;;;;;;33.80;19.83;;;;;;;6.66;85.42;100652.47;5010381;28;20417;-63
2021/10/16 00:15:40;;;;;;;33.22;20.08;;;;;;;6.67;86.42;100662.16;5010363;28;20025;-65
2021/10/16 00:18:05;;;;;;;36.10;19.38;;;;;;;6.63;86.12;100663.34;5009683;28;20026;-63
2021/10/16 00:20:33;;;;;;;33.00;20.48;;;;;;;6.55;85.08;100667.47;5009956;28;20033;-64
2021/10/16 00:22:59;;;;;;;33.40;19.55;;;;;;;6.50;85.71;100675.75;5010617;28;20421;-64
2021/10/16 00:25:24;;;;;;;32.58;18.95;;;;;;;6.40;85.52;100671.13;5006584;28;20041;-64
2021/10/16 00:27:50;;;;;;;36.28;19.75;;;;;;;6.38;85.23;100681.88;4991094;28;20074;-63
2021/10/16 00:30:15;;;;;;;31.17;18.10;;;;;;;6.33;85.59;100673.34;4990756;28;20081;-64
2021/10/16 00:32:41;;;;;;;37.08;20.08;;;;;;;6.24;84.89;100671.28;4990871;28;20031;-64
2021/10/16 00:35:07;;;;;;;36.50;18.70;;;;;;;6.24;84.89;100683.72;4989841;28;20026;-62
2021/10/16 00:37:32;;;;;;;30.60;17.45;;;;;;;6.19;84.94;100673.34;4991337;28;20364;-65
2021/10/16 00:39:58;;;;;;;30.60;17.48;;;;;;;6.18;83.56;100684.97;4990295;28;20085;-64
2021/10/16 00:42:23;;;;;;;28.85;15.95;;;;;;;6.10;82.37;100665.94;4990555;28;20088;-63
2021/10/16 00:44:49;;;;;;;26.35;16.52;;;;;;;6.14;82.04;100667.50;4990388;28;20130;-64
2021/10/16 00:47:14;;;;;;;25.58;15.75;;;;;;;6.02;81.63;100652.28;4990790;28;20026;-65
2021/10/16 00:49:39;;;;;;;22.58;14.88;;;;;;;6.10;80.83;100673.09;4991033;28;20026;-63
2021/10/16 00:52:07;;;;;;;25.08;15.57;;;;;;;6.10;81.41;100668.63;4990433;28;20034;-61
2021/10/16 00:54:32;;;;;;;27.23;15.88;;;;;;;6.02;81.73;100648.75;4991022;28;20030;-61
2021/10/16 00:57:00;;;;;;;28.88;16.27;;;;;;;6.03;83.11;100654.00;4990716;28;20041;-62
2021/10/16 00:59:28;;;;;;;27.13;16.08;;;;;;;5.99;83.16;100649.81;4990399;28;20050;-64
2021/10/16 01:01:54;;;;;;;29.95;17.17;;;;;;;5.95;83.20;100656.31;4990325;28;20033;-64
2021/10/16 01:04:19;;;;;;;28.27;16.15;;;;;;;5.96;83.06;100659.78;4990425;28;20026;-64
2021/10/16 01:06:45;;;;;;;32.00;17.00;;;;;;;5.89;83.61;100648.69;4989262;28;20033;-63
2021/10/16 01:09:12;;;;;;;25.77;15.88;;;;;;;5.85;83.82;100644.53;4990034;28;20436;-64
2021/10/16 01:11:51;;;;;;;25.23;16.00;;;;;;;5.86;84.12;100646.22;4999879;28;20491;-64
2021/10/16 01:14:17;;;;;;;29.08;16.35;;;;;;;5.82;83.64;100647.38;5008277;28;20021;-64
2021/10/16 01:16:44;;;;;;;27.90;16.20;;;;;;;5.79;84.41;100644.88;5009947;28;20549;-64
2021/10/16 01:19:15;;;;;;;29.98;17.10;;;;;;;5.75;84.18;100642.50;5009546;28;20112;-64
2021/10/16 01:21:45;;;;;;;29.92;16.75;;;;;;;5.65;84.86;100639.56;5009719;28;20030;-64
2021/10/16 01:24:14;;;;;;;27.80;14.50;;;;;;;5.70;84.62;100650.78;5009712;28;20022;-64
2021/10/16 01:26:42;;;;;;;28.42;16.10;;;;;;;5.69;84.36;100651.72;5009509;28;20050;-64
2021/10/16 01:29:09;;;;;;;29.35;17.75;;;;;;;5.64;85.76;100648.50;5007709;28;20278;-64
2021/10/16 01:31:37;;;;;;;31.27;18.45;;;;;;;5.60;85.74;100646.97;5009648;28;20037;-64
2021/10/16 01:34:03;;;;;;;33.38;18.48;;;;;;;5.59;86.93;100652.38;5009727;28;20013;-64
2021/10/16 01:36:55;;;;;;;31.52;16.70;;;;;;;5.53;87.33;100656.28;5008975;28;20416;-64
2021/10/16 01:39:21;;;;;;;29.85;16.92;;;;;;;5.47;88.13;100648.69;4990655;28;20392;-63
2021/10/16 01:41:48;;;;;;;27.88;16.70;;;;;;;5.51;88.79;100649.38;4989811;28;20018;-64
2021/10/16 01:44:15;;;;;;;29.55;16.80;;;;;;;5.50;88.61;100648.50;4988886;28;20042;-63
2021/10/16 01:46:41;;;;;;;27.52;16.40;;;;;;;5.41;87.73;100638.41;4987907;28;20045;-64
2021/10/16 01:49:13;;;;;;;27.52;15.85;;;;;;;5.40;88.22;100650.03;4989419;28;20105;-64
2021/10/16 01:51:40;;;;;;;25.52;16.52;;;;;;;5.28;88.62;100636.59;4988712;28;20034;-64
2021/10/16 01:54:06;;;;;;;27.35;15.65;;;;;;;5.34;88.81;100642.41;4989274;28;20026;-63
2021/10/16 01:56:32;;;;;;;27.80;16.30;;;;;;;5.30;88.80;100632.06;4989720;28;20436;-63
2021/10/16 01:59:17;;;;;;;27.92;15.88;;;;;;;5.27;88.37;100630.44;4989396;28;20436;-64
2021/10/16 02:01:42;;;;;;;;;;;;;;;5.22;88.64;100629.84;4991438;28;20034;-63
2021/10/16 02:04:08;;;;;;;27.00;16.30;;;;;;;5.22;88.79;100631.69;5008560;28;19925;-63
2021/10/16 02:06:34;;;;;;;26.67;15.75;;;;;;;5.17;89.17;100639.06;5009210;28;20481;-64
2021/10/16 02:08:59;;;;;;;26.38;16.05;;;;;;;5.18;89.22;100632.78;5009068;28;20061;-64
2021/10/16 02:11:25;;;;;;;30.48;17.77;;;;;;;5.12;89.92;100628.72;5009005;28;20409;-63
2021/10/16 02:13:50;;;;;;;31.33;17.85;;;;;;;5.11;90.38;100634.97;4997777;28;20033;-64
2021/10/16 02:16:16;;;;;;;30.67;17.70;;;;;;;5.08;90.25;100635.16;4989190;28;20045;-63
2021/10/16 02:18:42;;;;;;;32.05;17.92;;;;;;;5.08;90.04;100631.63;4987920;28;20050;-63
2021/10/16 02:21:07;;;;;;;34.13;17.52;;;;;;;5.05;89.98;100640.66;4988822;28;20085;-63
2021/10/16 02:23:32;;;;;;;33.40;18.17;;;;;;;5.05;89.64;100632.69;4989162;28;20469;-63
2021/10/16 02:25:58;;;;;;;30.83;18.50;;;;;;;5.03;89.78;100631.91;4999006;28;20037;-64
2021/10/16 02:28:25;;;;;;;33.30;17.92;;;;;;;5.04;90.48;100638.09;5003727;28;20062;-63
2021/10/16 02:30:50;;;;;;;35.08;19.95;;;;;;;5.03;90.80;100641.72;5007589;28;20059;-63
2021/10/16 02:33:16;;;;;;;37.08;20.85;;;;;;;4.95;91.30;100636.84;5008202;28;20056;-63
2021/10/16 02:35:41;;;;;;;37.10;20.63;;;;;;;4.94;91.79;100632.50;5008694;28;20379;-63
2021/10/16 02:38:08;;;;;;;31.67;18.33;;;;;;;5.00;91.50;100649.88;5008166;28;20519;-63
2021/10/16 02:40:34;;;;;;;34.05;18.38;;;;;;;5.01;90.68;100647.13;5008455;28;20028;-63
2021/10/16 02:43:01;;;;;;;36.95;19.77;;;;;;;4.94;90.21;100651.09;5006670;28;20395;-63
2021/10/16 02:45:26;;;;;;;35.42;20.67;;;;;;;4.87;89.95;100639.09;5006634;28;20117;-63
2021/10/16 02:47:52;;;;;;;37.38;19.88;;;;;;;4.84;90.25;100633.13;5008306;28;20044;-61
2021/10/16 02:50:17;;;;;;;39.95;20.05;;;;;;;4.83;90.35;100642.88;5008080;28;20021;-63
2021/10/16 02:52:42;;;;;;;34.35;20.17;;;;;;;4.82;90.24;100642.97;5008121;28;20468;-63
2021/10/16 02:55:08;;;;;;;38.58;20.52;;;;;;;4.80;90.49;100650.19;5008056;28;20117;-63
2021/10/16 02:57:34;;;;;;;36.33;21.10;;;;;;;4.78;90.81;100658.25;5008163;28;20074;-63
2021/10/16 02:59:59;;;;;;;38.10;21.10;;;;;;;4.78;90.97;100658.25;5002345;28;20109;-63
2021/10/16 03:02:25;;;;;;;34.88;20.98;;;;;;;4.74;91.63;100660.22;4987691;28;20030;-63
2021/10/16 03:04:51;;;;;;;35.17;21.15;;;;;;;4.75;92.33;100659.28;4986674;28;20034;-63
2021/10/16 03:07:16;;;;;;;36.92;21.95;;;;;;;4.75;92.47;100663.75;4987857;28;20069;-64
2021/10/16 03:09:42;;;;;;;35.08;22.10;;;;;;;4.64;91.44;100651.09;4987965;28;20032;-64
2021/10/16 03:12:08;;;;;;;41.20;22.60;;;;;;;4.69;91.04;100667.63;4987349;28;20038;-64
2021/10/16 03:14:34;;;;;;;41.97;22.73;;;;;;;4.63;91.20;100664.47;4988270;28;20034;-64
2021/10/16 03:16:59;;;;;;;42.10;23.63;;;;;;;4.64;91.41;100675.00;4988099;28;20022;-63
2021/10/16 03:19:25;;;;;;;46.38;24.30;;;;;;;4.54;91.55;100664.97;4986953;28;20121;-64
2021/10/16 03:21:50;;;;;;;42.55;22.85;;;;;;;4.55;91.96;100674.69;4987771;28;20477;-63
2021/10/16 03:24:15;;;;;;;45.38;25.05;;;;;;;4.60;91.53;100675.25;4987936;28;20030;-63
2021/10/16 03:26:41;;;;;;;42.10;23.27;;;;;;;4.59;91.60;100685.00;4987877;28;20370;-64
2021/10/16 03:29:06;;;;;;;39.97;23.30;;;;;;;4.58;91.77;100671.84;4988016;28;20671;-64
2021/10/16 03:31:32;;;;;;;42.38;24.13;;;;;;;4.58;91.56;100669.19;4986961;28;20434;-64
2021/10/16 03:33:57;;;;;;;42.08;25.02;;;;;;;4.55;91.81;100672.84;4988170;28;20026;-63
2021/10/16 03:36:23;;;;;;;40.75;23.45;;;;;;;4.53;91.74;100669.44;4988114;28;20022;-62
2021/10/16 03:38:48;;;;;;;39.47;23.13;;;;;;;4.57;92.20;100678.09;4988089;28;20030;-62
2021/10/16 03:41:14;;;;;;;36.75;22.20;;;;;;;4.58;91.90;100677.16;4987761;28;20142;-63
2021/10/16 03:43:39;;;;;;;40.05;23.15;;;;;;;4.54;91.33;100681.78;4988046;28;20042;-61
2021/10/16 03:46:05;;;;;;;44.25;23.92;;;;;;;4.57;91.03;100672.78;4987411;28;20022;-60
2021/10/16 03:48:30;;;;;;;40.50;24.15;;;;;;;4.54;90.72;100675.59;4987685;28;20026;-62
2021/10/16 03:50:55;;;;;;;41.50;24.55;;;;;;;4.52;91.44;100672.19;4987845;28;20069;-62
2021/10/16 03:53:21;;;;;;;46.38;24.85;;;;;;;4.49;91.96;100667.91;4988024;28;20035;-61
2021/10/16 03:55:46;;;;;;;48.42;25.40;;;;;;;4.47;92.30;100667.16;4999486;28;20071;-61
2021/10/16 03:58:12;;;;;;;43.60;25.48;;;;;;;4.47;92.29;100677.78;5002096;28;20120;-62
2021/10/16 04:00:38;;;;;;;43.38;25.70;;;;;;;4.47;91.87;100671.59;4988440;28;20439;-61
2021/10/16 04:03:05;;;;;;;39.60;25.10;;;;;;;4.45;92.10;100674.34;4988195;28;20037;-60
2021/10/16 04:05:34;;;;;;;50.95;26.15;;;;;;;4.45;92.65;100677.00;4987566;28;20038;-62
2021/10/16 04:08:00;;;;;;;45.38;25.35;;;;;;;4.42;92.51;100676.31;4988777;28;20536;-61
2021/10/16 04:10:25;;;;;;;42.30;24.40;;;;;;;4.42;92.75;100671.84;4988544;28;20109;-62
2021/10/16 04:12:51;;;;;;;44.63;25.98;;;;;;;4.42;92.80;100676.31;4988704;28;20133;-60
2021/10/16 04:15:16;;;;;;;40.53;23.48;;;;;;;4.39;92.77;100668.53;4991598;28;20543;-62
2021/10/16 04:17:45;;;;;;;42.00;23.92;;;;;;;4.35;92.59;100667.84;4992158;28;20034;-62
2021/10/16 04:20:12;;;;;;;41.20;23.75;;;;;;;4.35;92.14;100662.53;4992065;28;20349;-61
2021/10/16 04:22:37;;;;;;;41.88;24.05;;;;;;;4.33;91.98;100668.88;4992150;28;20037;-61
2021/10/16 04:25:03;;;;;;;41.42;23.65;;;;;;;4.22;91.46;100650.03;4991838;28;20027;-61
2021/10/16 04:27:28;;;;;;;43.05;24.98;;;;;;;4.33;91.39;100676.84;4991422;28;20505;-61
2021/10/16 04:29:54;;;;;;;42.42;23.85;;;;;;;4.27;91.49;100664.78;4984372;28;20045;-62
2021/10/16 04:32:20;;;;;;;39.58;23.05;;;;;;;4.27;91.55;100666.56;4991501;28;20058;-62
2021/10/16 04:34:45;;;;;;;38.85;23.00;;;;;;;4.24;91.48;100664.94;4989261;28;20037;-62
2021/10/16 04:37:11;;;;;;;42.92;24.00;;;;;;;4.26;91.82;100668.34;4990525;28;20369;-62
2021/10/16 04:39:36;;;;;;;36.28;22.65;;;;;;;4.23;92.84;100660.56;4990784;28;20026;-62
2021/10/16 04:42:02;;;;;;;35.75;23.10;;;;;;;4.26;92.84;100673.66;4990682;28;20030;-61
2021/10/16 04:44:28;;;;;;;41.35;23.23;;;;;;;4.15;92.65;100648.66;4990348;28;20148;-61
2021/10/16 04:46:53;;;;;;;39.20;22.88;;;;;;;4.26;93.03;100664.88;4988357;28;20037;-61
2021/10/16 04:49:19;;;;;;;39.03;23.58;;;;;;;4.27;93.00;100663.91;4986882;28;20057;-62
2021/10/16 04:51:45;;;;;;;42.55;24.42;;;;;;;4.20;92.68;100643.97;4990366;28;20392;-60
2021/10/16 04:54:10;;;;;;;40.30;22.55;;;;;;;4.21;92.80;100657.16;4990385;28;20108;-61
2021/10/16 04:56:35;;;;;;;37.65;22.85;;;;;;;4.26;92.59;100672.81;4990279;28;20038;-62
2021/10/16 04:59:01;;;;;;;38.33;22.65;;;;;;;4.24;92.65;100662.28;4990273;28;20031;-61
2021/10/16 05:01:27;;;;;;;39.17;23.65;;;;;;;4.19;92.00;100660.81;4990031;28;20025;-61
2021/10/16 05:03:52;;;;;;;43.85;23.42;;;;;;;4.18;92.06;100656.47;4990501;28;20152;-61
2021/10/16 05:06:20;;;;;;;35.83;22.83;;;;;;;4.21;92.02;100677.53;4990176;28;20038;-62
2021/10/16 05:08:46;;;;;;;39.58;23.33;;;;;;;4.19;91.84;100674.09;4990025;28;20101;-63
2021/10/16 05:11:11;;;;;;;42.03;23.67;;;;;;;4.18;92.18;100669.72;4990640;28;20104;-63
2021/10/16 05:13:36;;;;;;;44.13;23.80;;;;;;;4.21;92.48;100672.22;4990393;28;20037;-62
2021/10/16 05:16:02;;;;;;;40.55;21.95;;;;;;;4.20;92.59;100679.31;4990102;28;20042;-63
2021/10/16 05:18:27;;;;;;;39.38;23.08;;;;;;;4.20;92.89;100681.13;4989816;28;20034;-63
2021/10/16 05:20:53;;;;;;;40.88;24.73;;;;;;;4.23;93.02;100688.91;4990108;28;20480;-62
2021/10/16 05:23:19;;;;;;;40.72;24.02;;;;;;;4.23;93.61;100691.56;4989885;28;20065;-63
2021/10/16 05:25:46;;;;;;;37.25;22.85;;;;;;;4.19;93.75;100682.03;4989778;28;20041;-63
2021/10/16 05:28:12;;;;;;;39.25;23.50;;;;;;;4.23;93.69;100688.91;4989482;28;20049;-62
2021/10/16 05:30:39;;;;;;;41.17;23.08;;;;;;;4.18;94.01;100675.91;4989806;28;20030;-62
2021/10/16 05:33:05;;;;;;;37.40;21.98;;;;;;;4.26;94.06;100686.09;4990101;28;20428;-63
2021/10/16 05:35:30;;;;;;;40.78;23.83;;;;;;;4.21;94.17;100678.38;4989473;28;20026;-63
2021/10/16 05:37:56;;;;;;;38.20;22.40;;;;;;;4.29;94.34;100686.75;4989654;28;20480;-64
2021/10/16 05:40:21;;;;;;;38.22;22.55;;;;;;;4.30;94.31;100692.94;4989325;28;20026;-63
2021/10/16 05:42:47;;;;;;;38.75;23.40;;;;;;;4.23;94.15;100675.66;4989444;28;20535;-63
2021/10/16 05:45:12;;;;;;;43.33;23.42;;;;;;;4.34;94.60;100692.69;4989278;28;20121;-63
2021/10/16 05:47:38;;;;;;;40.03;23.00;;;;;;;4.40;95.00;100700.31;4989871;28;20101;-63
2021/10/16 05:50:05;;;;;;;44.05;22.65;;;;;;;4.45;94.91;100708.03;4993450;28;20041;-62
2021/10/16 05:52:31;;;;;;;39.97;22.95;;;;;;;4.48;94.58;100710.47;4997869;28;20042;-62
2021/10/16 05:54:56;;;;;;;40.83;23.83;;;;;;;4.50;94.71;100713.91;4989320;28;20026;-63
2021/10/16 05:57:22;;;;;;;38.92;23.90;;;;;;;4.53;95.05;100713.75;4998888;28;20033;-63
2021/10/16 05:59:47;;;;;;;45.97;22.70;;;;;;;4.55;95.44;100714.53;5008542;28;20040;-63
2021/10/16 06:02:12;;;;;;;36.85;22.48;;;;;;;4.55;95.67;100710.03;5008725;28;20502;-62
2021/10/16 06:04:38;;;;;;;36.15;22.23;;;;;;;4.62;95.76;100710.56;5008990;28;20053;-62
2021/10/16 06:07:04;;;;;;;33.13;21.90;;;;;;;4.66;96.20;100728.91;5008386;28;20032;-62
2021/10/16 06:09:29;;;;;;;40.55;23.58;;;;;;;4.71;96.83;100725.97;5008557;28;20507;-63
2021/10/16 06:11:55;;;;;;;42.53;24.80;;;;;;;4.73;96.86;100721.41;4998707;28;20496;-63
2021/10/16 06:14:20;;;;;;;38.92;23.98;;;;;;;4.80;97.07;100722.78;4986864;28;20532;-62
2021/10/16 06:16:46;;;;;;;44.33;22.90;;;;;;;4.79;96.80;100713.09;4985540;28;20081;-63
2021/10/16 06:19:11;;;;;;;39.08;23.63;;;;;;;4.85;97.08;100711.88;5006583;28;20037;-63
2021/10/16 06:21:37;;;;;;;39.67;22.80;;;;;;;4.96;97.26;100725.41;5008403;28;20040;-63
2021/10/16 06:24:02;;;;;;;46.15;23.80;;;;;;;5.00;97.60;100722.47;5007668;28;20095;-63
2021/10/16 06:26:28;;;;;;;42.97;25.30;;;;;;;5.13;97.77;100731.47;4999114;28;20127;-63
2021/10/16 06:28:53;;;;;;;48.50;24.45;;;;;;;5.23;98.11;100737.94;4986957;28;20145;-64
2021/10/16 06:31:19;;;;;;;45.72;25.95;;;;;;;5.31;98.58;100733.00;4986871;28;20026;-63
2021/10/16 06:33:44;;;;;;;43.05;26.35;;;;;;;5.41;98.65;100738.63;4987875;28;20057;-63
2021/10/16 06:36:10;;;;;;;47.00;25.77;;;;;;;5.53;98.87;100741.41;4987885;28;20053;-63
2021/10/16 06:38:35;;;;;;;44.10;26.33;;;;;;;5.61;98.59;100736.47;4996386;28;20080;-63
2021/10/16 06:41:02;;;;;;;45.03;26.55;;;;;;;5.77;98.70;100747.91;4988297;28;20033;-63
2021/10/16 06:43:28;;;;;;;41.38;24.85;;;;;;;5.77;98.24;100728.44;4988253;28;20034;-64
2021/10/16 06:45:54;;;;;;;46.22;27.33;;;;;;;5.99;97.79;100752.78;4987964;28;20503;-63
2021/10/16 06:48:19;;;;;;;36.40;24.00;;;;;;;6.19;97.25;100755.91;4988094;28;20437;-64
2021/10/16 06:50:45;;;;;;;42.00;25.27;;;;;;;6.40;95.91;100767.88;4988157;28;20046;-62
2021/10/16 06:53:10;;;;;;;44.20;25.48;;;;;;;6.53;95.25;100751.97;4988375;28;20026;-64
2021/10/16 06:55:35;;;;;;;46.25;27.50;;;;;;;6.71;93.87;100764.94;4988043;28;20025;-63
2021/10/16 06:58:01;;;;;;;41.60;25.80;;;;;;;6.88;93.50;100763.88;4987357;28;20120;-62
2021/10/16 07:00:26;;;;;;;45.72;27.15;;;;;;;6.96;92.79;100751.72;4986142;28;20065;-63
2021/10/16 07:02:52;;;;;;;47.28;27.83;;;;;;;7.16;92.39;100762.88;4986209;28;20033;-62
2021/10/16 07:05:17;;;;;;;43.72;26.20;;;;;;;7.32;91.15;100760.91;4986184;28;20473;-63
2021/10/16 07:07:43;;;;;;;37.78;24.15;;;;;;;7.48;90.75;100759.75;4986402;28;20030;-62
2021/10/16 07:10:08;;;;;;;42.88;25.55;;;;;;;7.67;88.94;100764.72;4986157;28;20037;-64
2021/10/16 07:12:35;;;;;;;43.40;25.13;;;;;;;7.89;87.20;100759.56;4984787;28;20038;-63
2021/10/16 07:15:02;;;;;;;40.33;21.83;;;;;;;8.14;84.52;100767.56;4988611;28;20022;-63
2021/10/16 07:17:28;;;;;;;31.48;20.42;;;;;;;8.38;82.07;100765.84;4985788;28;20062;-63
2021/10/16 07:19:53;;;;;;;29.70;18.55;;;;;;;8.63;80.54;100763.97;4988735;28;20073;-63
2021/10/16 07:22:20;;;;;;;28.00;18.35;;;;;;;8.94;79.43;100752.72;4985517;28;20042;-61
2021/10/16 07:24:46;;;;;;;29.58;19.25;;;;;;;9.67;75.71;100758.72;4986026;28;20035;-63
2021/10/16 07:27:11;;;;;;;30.63;18.05;;;;;;;10.45;72.03;100765.06;4986444;28;20073;-64
2021/10/16 07:29:37;;;;;;;28.33;18.58;;;;;;;11.29;67.40;100750.78;4986062;28;20085;-63
2021/10/16 07:32:03;;;;;;;27.48;18.58;;;;;;;12.17;63.46;100749.44;4986004;28;20455;-64
2021/10/16 07:34:28;;;;;;;26.40;18.15;;;;;;;12.99;60.29;100746.47;4986177;28;20117;-64
2021/10/16 07:36:54;;;;;;;27.58;17.77;;;;;;;13.70;57.09;100740.66;4985838;28;20030;-64
2021/10/16 07:39:19;;;;;;;24.02;17.67;;;;;;;14.43;54.71;100742.59;4985758;28;20034;-64
2021/10/16 07:41:47;;;;;;;23.15;16.42;;;;;;;15.08;52.53;100750.47;4986165;28;20034;-64
2021/10/16 07:44:13;;;;;;;21.85;16.42;;;;;;;15.72;50.68;100739.41;4986168;28;20033;-63
2021/10/16 07:46:38;;;;;;;20.08;16.63;;;;;;;16.38;48.39;100728.88;4985640;28;20038;-64
2021/10/16 07:49:04;;;;;;;23.83;16.52;;;;;;;17.06;47.01;100733.22;4988702;28;20034;-63
2021/10/16 07:51:29;;;;;;;25.05;16.20;;;;;;;17.57;45.36;100716.66;4989781;28;20096;-64
2021/10/16 07:53:55;;;;;;;21.52;16.63;;;;;;;18.04;43.93;100715.78;4989685;28;20510;-64
2021/10/16 07:56:20;;;;;;;22.08;16.45;;;;;;;18.22;43.58;100734.59;4989550;28;20482;-64
2021/10/16 07:58:46;;;;;;;18.75;15.60;;;;;;;18.29;42.85;100730.16;4990072;28;20519;-65
2021/10/16 08:01:11;;;;;;;23.13;15.77;;;;;;;17.66;44.06;100721.06;4989996;28;20085;-63
2021/10/16 08:03:37;;;;;;;23.23;15.75;;;;;;;16.94;45.44;100729.09;5004809;28;20048;-63
2021/10/16 08:06:03;;;;;;;21.80;16.27;;;;;;;16.33;47.07;100734.75;4989177;28;20097;-63
2021/10/16 08:08:29;;;;;;;21.85;17.13;;;;;;;15.72;48.65;100724.06;5004349;28;20547;-64
2021/10/16 08:10:55;;;;;;;25.45;16.70;;;;;;;15.34;49.98;100737.88;5007396;28;20030;-63
2021/10/16 08:13:21;;;;;;;23.60;16.15;;;;;;;14.99;50.63;100737.84;4988269;28;20671;-63
2021/10/16 08:16:02;;;;;;;19.75;16.02;;;;;;;14.68;51.79;100741.91;4996174;28;20550;-62
2021/10/16 08:18:27;;;;;;;17.73;14.05;;;;;;;14.50;51.63;100751.78;4985855;28;20030;-62
2021/10/16 08:20:53;;;;;;;18.45;14.13;;;;;;;14.38;52.58;100744.03;4988176;28;20396;-63
2021/10/16 08:23:18;;;;;;;20.20;13.30;;;;;;;14.31;52.83;100751.03;4992731;28;20097;-62
2021/10/16 08:25:44;;;;;;;20.60;14.75;;;;;;;14.29;53.36;100742.22;5006636;28;20293;-62
2021/10/16 08:28:11;;;;;;;20.85;15.70;;;;;;;14.27;54.52;100739.69;5008261;28;20056;-63
2021/10/16 08:30:39;;;;;;;25.05;14.57;;;;;;;14.26;54.49;100743.38;5006077;28;20109;-62
2021/10/16 08:33:04;;;;;;;19.42;14.88;;;;;;;14.32;53.92;100744.63;4997807;28;20030;-62
2021/10/16 08:35:30;;;;;;;19.80;14.45;;;;;;;14.30;54.30;100744.78;5008408;28;20022;-63
2021/10/16 08:37:55;;;;;;;20.77;14.05;;;;;;;14.30;54.19;100744.78;5008739;28;20025;-63
2021/10/16 08:40:24;;;;;;;21.33;14.40;;;;;;;14.29;54.05;100736.84;5008000;28;20499;-62
2021/10/16 08:42:50;;;;;;;16.63;12.25;;;;;;;14.36;54.13;100744.19;5007416;28;20045;-62
2021/10/16 08:45:15;;;;;;;16.38;12.65;;;;;;;14.45;53.83;100737.06;5007335;28;20530;-63
2021/10/16 08:47:41;;;;;;;22.33;14.15;;;;;;;14.44;53.87;100744.28;4990892;28;20030;-63
2021/10/16 08:50:09;;;;;;;17.52;13.02;;;;;;;14.42;54.03;100745.44;4987759;28;20026;-63
2021/10/16 08:52:35;;;;;;;16.92;12.77;;;;;;;14.47;53.66;100744.00;4987122;28;20070;-64
2021/10/16 08:55:02;;;;;;;16.58;12.90;;;;;;;14.54;53.94;100742.38;4986282;28;20499;-64
2021/10/16 08:57:32;;;;;;;19.65;12.77;;;;;;;14.64;53.07;100734.25;4986898;28;20085;-62
2021/10/16 08:59:58;;;;;;;16.98;12.88;;;;;;;14.68;53.22;100741.03;4987990;28;20743;-62
2021/10/16 09:02:35;;;;;;;17.88;12.10;;;;;;;14.75;53.04;100745.69;4986637;28;20177;-64
2021/10/16 09:05:14;;;;;;;16.98;10.88;;;;;;;14.96;52.68;100740.03;5003493;28;20459;-63
2021/10/16 09:07:39;;;;;;;15.27;10.63;;;;;;;15.22;51.95;100728.31;5005735;28;20034;-63
2021/10/16 09:10:23;;;;;;;13.38;11.10;;;;;;;16.47;49.69;100741.47;5007589;28;20923;-63
2021/10/16 09:12:54;;;;;;;13.32;10.35;;;;;;;17.96;46.47;100723.94;5006333;28;20054;-63
2021/10/16 09:15:21;;;;;;;14.32;10.00;;;;;;;19.71;42.62;100726.00;5006963;28;20038;-63
2021/10/16 09:18:00;;;;;;;12.50;9.85;;;;;;;21.45;38.63;100719.63;5002109;28;20084;-63
2021/10/16 09:20:35;;;;;;;11.95;8.30;;;;;;;23.08;35.35;100701.63;5005800;28;20026;-64
2021/10/16 09:23:09;;;;;;;9.60;8.45;;;;;;;24.61;32.74;100719.59;4987812;28;20046;-63
2021/10/16 09:25:35;;;;;;;9.60;8.32;;;;;;;25.71;31.29;100704.50;4986018;28;20034;-63
2021/10/16 09:28:17;;;;;;;9.48;7.50;;;;;;;26.74;29.51;100696.31;4992395;28;20396;-61
2021/10/16 09:30:44;;;;;;;11.75;7.80;;;;;;;27.38;29.28;100691.03;4989005;28;20048;-64
2021/10/16 09:33:10;;;;;;;11.52;7.93;;;;;;;27.91;27.58;100689.13;5001870;28;20366;-64
2021/10/16 09:35:35;;;;;;;9.13;8.20;;;;;;;28.48;26.77;100687.47;4999550;28;20028;-63
2021/10/16 09:38:01;;;;;;;8.40;7.50;;;;;;;29.06;26.11;100688.19;5001938;28;20105;-64
2021/10/16 09:40:40;;;;;;;10.68;7.65;;;;;;;29.44;25.74;100685.59;4994894;28;20120;-62
2021/10/16 09:43:23;;;;;;;9.55;7.53;;;;;;;29.62;25.40;100688.19;5005580;28;20042;-63
2021/10/16 09:46:12;;;;;;;8.77;7.88;;;;;;;29.98;24.80;100686.88;4996356;28;20045;-63
2021/10/16 09:48:38;;;;;;;9.25;7.45;;;;;;;30.09;24.94;100685.94;4985048;28;20049;-64
2021/10/16 09:51:03;;;;;;;8.32;7.53;;;;;;;30.12;24.53;100680.72;4974638;28;20039;-64
2021/10/16 09:53:29;;;;;;;8.35;7.53;;;;;;;30.06;25.00;100691.97;4979401;28;20050;-64
2021/10/16 09:55:55;;;;;;;8.27;7.30;;;;;;;30.30;24.82;100688.78;4992076;28;20030;-64
2021/10/16 09:58:22;;;;;;;8.93;8.02;;;;;;;30.57;24.38;100691.66;4980911;28;20342;-63
2021/10/16 10:00:50;;;;;;;7.53;6.78;;;;;;;29.79;25.22;100675.19;4978233;28;20657;-64
2021/10/16 10:03:16;;;;;;;7.90;7.10;;;;;;;28.77;26.25;100685.59;4979755;28;20405;-63
2021/10/16 10:05:44;;;;;;;9.68;7.10;;;;;;;27.43;27.91;100688.41;4983343;28;20045;-64
2021/10/16 10:08:10;;;;;;;7.93;6.63;;;;;;;25.94;29.61;100691.81;4975198;28;20505;-63
2021/10/16 10:10:36;;;;;;;8.15;7.07;;;;;;;24.71;31.42;100698.06;4979973;28;20052;-63
2021/10/16 10:13:02;;;;;;;8.18;6.65;;;;;;;23.56;33.36;100685.94;4982201;28;20493;-64
2021/10/16 10:15:27;;;;;;;9.07;7.18;;;;;;;22.88;34.38;100703.44;4981915;28;20038;-64
2021/10/16 10:17:53;;;;;;;10.95;7.28;;;;;;;22.11;35.92;100710.97;4982720;28;20034;-63
2021/10/16 10:20:20;;;;;;;11.88;7.45;;;;;;;21.60;36.71;100708.66;4978109;28;20042;-63
2021/10/16 10:22:46;;;;;;;12.63;7.63;;;;;;;21.02;37.83;100706.97;4979760;28;20046;-63
2021/10/16 10:25:26;;;;;;;7.68;6.80;;;;;;;20.36;39.33;100711.72;4978927;28;20026;-64
2021/10/16 10:27:56;;;;;;;10.95;7.80;;;;;;;19.84;40.59;100709.88;4979376;28;20051;-62
2021/10/16 10:30:38;;;;;;;9.38;7.00;;;;;;;19.36;41.51;100717.59;4980609;28;20058;-65
2021/10/16 10:33:16;;;;;;;11.25;8.10;;;;;;;18.92;42.45;100701.03;4978416;28;20100;-64
2021/10/16 10:36:28;;;;;;;9.13;7.90;;;;;;;18.58;43.23;100702.41;4983701;28;20038;-63
2021/10/16 10:38:53;;;;;;;10.07;8.57;;;;;;;18.26;44.76;100703.34;4980905;28;20484;-63
2021/10/16 10:41:25;;;;;;;11.55;8.43;;;;;;;18.08;45.54;100718.16;4984824;28;20037;-63
2021/10/16 10:43:55;;;;;;;10.43;8.40;;;;;;;17.84;46.40;100703.59;4984697;28;20406;-66
2021/10/16 10:46:25;;;;;;;10.75;8.85;;;;;;;17.70;46.86;100717.00;4983446;28;20054;-63
2021/10/16 10:48:50;;;;;;;15.13;10.10;;;;;;;17.49;47.78;100711.25;4986216;28;20089;-63
2021/10/16 10:51:37;;;;;;;11.48;10.05;;;;;;;17.35;48.49;100701.06;4980554;28;20030;-63
2021/10/16 10:54:16;;;;;;;13.45;10.23;;;;;;;17.25;48.57;100712.03;4982911;28;20543;-64
2021/10/16 10:56:45;;;;;;;10.73;7.72;;;;;;;17.17;48.88;100708.47;4978361;28;20349;-64
2021/10/16 10:59:13;;;;;;;11.68;9.48;;;;;;;17.10;48.55;100708.31;4978494;28;20046;-64
2021/10/16 11:01:59;;;;;;;11.13;8.25;;;;;;;17.05;48.77;100696.25;4980750;28;20101;-65
2021/10/16 11:04:51;;;;;;;10.77;8.50;;;;;;;17.05;48.67;100688.97;4981225;28;20548;-64
2021/10/16 11:07:30;;;;;;;10.63;8.35;;;;;;;17.10;49.72;100696.63;4994860;28;20061;-63
2021/10/16 11:10:01;;;;;;;12.77;9.10;;;;;;;17.11;50.26;100695.59;4983008;28;20407;-64
2021/10/16 11:12:36;;;;;;;17.30;11.57;;;;;;;17.04;50.43;100691.84;4980847;28;20072;-63
2021/10/16 11:15:04;;;;;;;14.30;11.40;;;;;;;17.06;50.38;100700.69;4993424;28;20377;-64
2021/10/16 11:17:35;;;;;;;17.13;12.15;;;;;;;17.01;50.24;100692.19;4979625;28;20049;-64